sensor_id;sensor_type;location;lat;lon;timestamp;P1;durP1;ratioP1;P2;durP2;ratioP2
15317;SDS011;7759;52.528;13.346;2022-09-21T00:01:40;2.00;;;1.60;;
15317;SDS011;7759;52.528;13.346;2022-09-21T00:04:06;2.30;;;1.70;;
15317;SDS011;7759;52.528;13.346;2022-09-21T00:06:33;3.90;;;1.80;;
15317;SDS011;7759;52.528;13.346;2022-09-21T00:09:29;3.23;;;2.00;;
15317;SDS011;7759;52.528;13.346;2022-09-21T00:12:00;4.97;;;2.03;;
15317;SDS011;7759;52.528;13.346;2022-09-21T00:14:26;2.43;;;1.97;;
15317;SDS011;7759;52.528;13.346;2022-09-21T00:34:26;3.57;;;2.00;;
15317;SDS011;7759;52.528;13.346;2022-09-21T00:36:54;3.50;;;2.20;;
15317;SDS011;7759;52.528;13.346;2022-09-21T00:55:55;2.30;;;2.10;;
15317;SDS011;7759;52.528;13.346;2022-09-21T00:58:27;2.47;;;2.00;;
15317;SDS011;7759;52.528;13.346;2022-09-21T01:00:55;3.20;;;1.80;;
15317;SDS011;7759;52.528;13.346;2022-09-21T01:03:22;3.87;;;2.00;;
15317;SDS011;7759;52.528;13.346;2022-09-21T01:05:48;2.97;;;1.90;;
15317;SDS011;7759;52.528;13.346;2022-09-21T01:08:34;5.10;;;1.80;;
15317;SDS011;7759;52.528;13.346;2022-09-21T01:11:15;2.60;;;1.70;;
15317;SDS011;7759;52.528;13.346;2022-09-21T01:16:33;2.37;;;1.37;;
15317;SDS011;7759;52.528;13.346;2022-09-21T01:21:48;2.03;;;1.60;;
15317;SDS011;7759;52.528;13.346;2022-09-21T01:24:39;3.63;;;1.47;;
15317;SDS011;7759;52.528;13.346;2022-09-21T01:29:49;3.07;;;1.57;;
15317;SDS011;7759;52.528;13.346;2022-09-21T01:32:27;2.10;;;1.60;;
15317;SDS011;7759;52.528;13.346;2022-09-21T01:34:55;3.17;;;1.80;;
15317;SDS011;7759;52.528;13.346;2022-09-21T01:37:25;1.53;;;1.30;;
15317;SDS011;7759;52.528;13.346;2022-09-21T01:39:54;2.07;;;1.43;;
15317;SDS011;7759;52.528;13.346;2022-09-21T01:42:25;1.87;;;1.47;;
15317;SDS011;7759;52.528;13.346;2022-09-21T02:06:42;2.00;;;1.43;;
15317;SDS011;7759;52.528;13.346;2022-09-21T02:09:11;2.90;;;1.60;;
15317;SDS011;7759;52.528;13.346;2022-09-21T02:11:39;2.60;;;1.50;;
15317;SDS011;7759;52.528;13.346;2022-09-21T02:14:12;2.33;;;1.30;;
15317;SDS011;7759;52.528;13.346;2022-09-21T02:17:04;2.57;;;1.87;;
15317;SDS011;7759;52.528;13.346;2022-09-21T02:25:13;1.87;;;1.47;;
15317;SDS011;7759;52.528;13.346;2022-09-21T02:27:49;1.57;;;1.43;;
15317;SDS011;7759;52.528;13.346;2022-09-21T02:30:25;1.80;;;1.40;;
15317;SDS011;7759;52.528;13.346;2022-09-21T02:35:23;2.30;;;1.40;;
15317;SDS011;7759;52.528;13.346;2022-09-21T02:37:57;2.50;;;1.50;;
15317;SDS011;7759;52.528;13.346;2022-09-21T02:40:39;3.00;;;1.30;;
15317;SDS011;7759;52.528;13.346;2022-09-21T02:43:13;1.63;;;1.40;;
15317;SDS011;7759;52.528;13.346;2022-09-21T02:45:45;1.70;;;1.40;;
15317;SDS011;7759;52.528;13.346;2022-09-21T02:48:17;2.20;;;1.30;;
15317;SDS011;7759;52.528;13.346;2022-09-21T02:50:46;11.40;;;1.57;;
15317;SDS011;7759;52.528;13.346;2022-09-21T02:53:37;1.60;;;1.23;;
15317;SDS011;7759;52.528;13.346;2022-09-21T02:56:07;1.60;;;1.17;;
15317;SDS011;7759;52.528;13.346;2022-09-21T02:58:40;4.37;;;1.30;;
15317;SDS011;7759;52.528;13.346;2022-09-21T03:01:09;1.87;;;1.13;;
15317;SDS011;7759;52.528;13.346;2022-09-21T03:03:35;1.70;;;1.27;;
15317;SDS011;7759;52.528;13.346;2022-09-21T03:06:02;2.20;;;1.50;;
15317;SDS011;7759;52.528;13.346;2022-09-21T03:08:28;3.97;;;1.60;;
15317;SDS011;7759;52.528;13.346;2022-09-21T03:10:54;1.63;;;1.10;;
15317;SDS011;7759;52.528;13.346;2022-09-21T03:13:23;1.90;;;1.37;;
15317;SDS011;7759;52.528;13.346;2022-09-21T03:15:57;2.97;;;1.50;;
15317;SDS011;7759;52.528;13.346;2022-09-21T03:18:23;3.10;;;1.30;;
15317;SDS011;7759;52.528;13.346;2022-09-21T03:20:49;2.83;;;1.50;;
15317;SDS011;7759;52.528;13.346;2022-09-21T03:23:15;4.40;;;1.30;;
15317;SDS011;7759;52.528;13.346;2022-09-21T03:25:45;2.93;;;1.40;;
15317;SDS011;7759;52.528;13.346;2022-09-21T03:28:12;2.40;;;1.50;;
15317;SDS011;7759;52.528;13.346;2022-09-21T03:30:38;1.47;;;1.20;;
15317;SDS011;7759;52.528;13.346;2022-09-21T03:33:07;1.73;;;1.40;;
15317;SDS011;7759;52.528;13.346;2022-09-21T03:35:34;3.27;;;1.60;;
15317;SDS011;7759;52.528;13.346;2022-09-21T03:38:03;2.20;;;1.30;;
15317;SDS011;7759;52.528;13.346;2022-09-21T03:40:29;1.70;;;1.40;;
15317;SDS011;7759;52.528;13.346;2022-09-21T03:42:55;1.97;;;1.30;;
15317;SDS011;7759;52.528;13.346;2022-09-21T03:45:21;2.77;;;1.33;;
15317;SDS011;7759;52.528;13.346;2022-09-21T03:47:49;2.43;;;1.27;;
15317;SDS011;7759;52.528;13.346;2022-09-21T03:50:15;6.87;;;1.30;;
15317;SDS011;7759;52.528;13.346;2022-09-21T03:52:44;2.60;;;1.20;;
15317;SDS011;7759;52.528;13.346;2022-09-21T03:55:10;3.53;;;1.67;;
15317;SDS011;7759;52.528;13.346;2022-09-21T03:57:36;2.30;;;1.33;;
15317;SDS011;7759;52.528;13.346;2022-09-21T04:00:05;3.00;;;2.13;;
15317;SDS011;7759;52.528;13.346;2022-09-21T04:02:32;3.17;;;1.50;;
15317;SDS011;7759;52.528;13.346;2022-09-21T04:05:01;4.23;;;1.67;;
15317;SDS011;7759;52.528;13.346;2022-09-21T04:07:32;3.20;;;1.33;;
15317;SDS011;7759;52.528;13.346;2022-09-21T04:09:59;2.30;;;1.40;;
15317;SDS011;7759;52.528;13.346;2022-09-21T04:12:27;2.17;;;1.40;;
15317;SDS011;7759;52.528;13.346;2022-09-21T04:14:54;1.93;;;1.30;;
15317;SDS011;7759;52.528;13.346;2022-09-21T04:17:20;3.27;;;1.47;;
15317;SDS011;7759;52.528;13.346;2022-09-21T04:19:46;1.97;;;1.53;;
15317;SDS011;7759;52.528;13.346;2022-09-21T04:22:12;1.33;;;1.20;;
15317;SDS011;7759;52.528;13.346;2022-09-21T04:24:38;1.83;;;1.30;;
15317;SDS011;7759;52.528;13.346;2022-09-21T04:27:08;3.97;;;1.50;;
15317;SDS011;7759;52.528;13.346;2022-09-21T04:29:35;3.83;;;1.77;;
15317;SDS011;7759;52.528;13.346;2022-09-21T04:32:02;2.07;;;1.53;;
15317;SDS011;7759;52.528;13.346;2022-09-21T04:34:29;1.50;;;1.30;;
15317;SDS011;7759;52.528;13.346;2022-09-21T04:36:56;2.83;;;1.80;;
15317;SDS011;7759;52.528;13.346;2022-09-21T04:39:22;2.70;;;1.63;;
15317;SDS011;7759;52.528;13.346;2022-09-21T04:41:48;2.23;;;1.63;;
15317;SDS011;7759;52.528;13.346;2022-09-21T04:44:14;3.33;;;1.60;;
15317;SDS011;7759;52.528;13.346;2022-09-21T04:46:43;3.47;;;1.40;;
15317;SDS011;7759;52.528;13.346;2022-09-21T04:49:09;1.53;;;1.27;;
15317;SDS011;7759;52.528;13.346;2022-09-21T04:54:11;2.17;;;1.80;;
15317;SDS011;7759;52.528;13.346;2022-09-21T05:04:59;3.77;;;1.60;;
15317;SDS011;7759;52.528;13.346;2022-09-21T05:07:25;2.20;;;1.50;;
15317;SDS011;7759;52.528;13.346;2022-09-21T05:09:51;3.27;;;1.33;;
15317;SDS011;7759;52.528;13.346;2022-09-21T05:12:31;3.53;;;1.50;;
15317;SDS011;7759;52.528;13.346;2022-09-21T05:14:58;3.57;;;1.60;;
15317;SDS011;7759;52.528;13.346;2022-09-21T05:28:07;4.27;;;1.70;;
15317;SDS011;7759;52.528;13.346;2022-09-21T05:30:33;3.33;;;1.60;;
15317;SDS011;7759;52.528;13.346;2022-09-21T05:35:59;2.47;;;1.43;;
15317;SDS011;7759;52.528;13.346;2022-09-21T05:38:27;3.13;;;1.87;;
15317;SDS011;7759;52.528;13.346;2022-09-21T05:40:53;2.20;;;1.80;;
15317;SDS011;7759;52.528;13.346;2022-09-21T05:43:21;6.27;;;1.80;;
15317;SDS011;7759;52.528;13.346;2022-09-21T05:46:06;4.57;;;1.90;;
15317;SDS011;7759;52.528;13.346;2022-09-21T05:48:39;3.03;;;1.77;;
15317;SDS011;7759;52.528;13.346;2022-09-21T05:56:27;3.33;;;2.27;;
15317;SDS011;7759;52.528;13.346;2022-09-21T05:59:20;2.70;;;1.80;;
15317;SDS011;7759;52.528;13.346;2022-09-21T06:04:27;2.97;;;1.50;;
15317;SDS011;7759;52.528;13.346;2022-09-21T06:06:53;3.63;;;2.10;;
15317;SDS011;7759;52.528;13.346;2022-09-21T06:09:20;3.03;;;1.90;;
15317;SDS011;7759;52.528;13.346;2022-09-21T06:14:36;3.67;;;2.07;;
15317;SDS011;7759;52.528;13.346;2022-09-21T06:17:03;6.27;;;1.93;;
15317;SDS011;7759;52.528;13.346;2022-09-21T06:19:30;3.40;;;2.00;;
15317;SDS011;7759;52.528;13.346;2022-09-21T06:21:56;3.93;;;2.53;;
15317;SDS011;7759;52.528;13.346;2022-09-21T06:24:26;3.73;;;2.50;;
15317;SDS011;7759;52.528;13.346;2022-09-21T06:26:52;2.93;;;2.13;;
15317;SDS011;7759;52.528;13.346;2022-09-21T06:29:18;2.80;;;1.80;;
15317;SDS011;7759;52.528;13.346;2022-09-21T06:31:47;7.40;;;2.40;;
15317;SDS011;7759;52.528;13.346;2022-09-21T06:34:15;3.30;;;1.60;;
15317;SDS011;7759;52.528;13.346;2022-09-21T06:36:41;3.03;;;1.70;;
15317;SDS011;7759;52.528;13.346;2022-09-21T06:39:07;3.90;;;1.60;;
15317;SDS011;7759;52.528;13.346;2022-09-21T06:41:33;2.23;;;1.50;;
15317;SDS011;7759;52.528;13.346;2022-09-21T06:43:59;1.43;;;1.20;;
15317;SDS011;7759;52.528;13.346;2022-09-21T06:46:25;2.40;;;1.47;;
15317;SDS011;7759;52.528;13.346;2022-09-21T06:48:52;1.87;;;1.20;;
15317;SDS011;7759;52.528;13.346;2022-09-21T06:51:19;6.47;;;2.80;;
15317;SDS011;7759;52.528;13.346;2022-09-21T06:53:47;2.40;;;1.80;;
15317;SDS011;7759;52.528;13.346;2022-09-21T06:56:18;1.83;;;1.30;;
15317;SDS011;7759;52.528;13.346;2022-09-21T06:58:44;3.03;;;1.53;;
15317;SDS011;7759;52.528;13.346;2022-09-21T07:01:13;1.87;;;1.50;;
15317;SDS011;7759;52.528;13.346;2022-09-21T07:03:39;1.63;;;1.27;;
15317;SDS011;7759;52.528;13.346;2022-09-21T07:06:06;3.90;;;2.00;;
15317;SDS011;7759;52.528;13.346;2022-09-21T07:08:33;2.10;;;1.40;;
15317;SDS011;7759;52.528;13.346;2022-09-21T07:11:01;4.77;;;1.80;;
15317;SDS011;7759;52.528;13.346;2022-09-21T07:13:30;4.87;;;2.30;;
15317;SDS011;7759;52.528;13.346;2022-09-21T07:15:56;3.33;;;2.13;;
15317;SDS011;7759;52.528;13.346;2022-09-21T07:18:22;2.80;;;1.63;;
15317;SDS011;7759;52.528;13.346;2022-09-21T07:21:57;3.50;;;1.80;;
15317;SDS011;7759;52.528;13.346;2022-09-21T07:24:25;3.70;;;1.90;;
15317;SDS011;7759;52.528;13.346;2022-09-21T07:27:12;7.30;;;2.10;;
15317;SDS011;7759;52.528;13.346;2022-09-21T07:29:44;1.93;;;1.53;;
15317;SDS011;7759;52.528;13.346;2022-09-21T07:43:01;1.73;;;1.50;;
15317;SDS011;7759;52.528;13.346;2022-09-21T07:45:42;4.20;;;1.80;;
15317;SDS011;7759;52.528;13.346;2022-09-21T07:48:11;2.57;;;1.80;;
15317;SDS011;7759;52.528;13.346;2022-09-21T07:50:42;5.20;;;2.73;;
15317;SDS011;7759;52.528;13.346;2022-09-21T07:53:09;3.27;;;1.97;;
15317;SDS011;7759;52.528;13.346;2022-09-21T07:55:35;5.73;;;2.00;;
15317;SDS011;7759;52.528;13.346;2022-09-21T07:58:04;6.43;;;2.30;;
15317;SDS011;7759;52.528;13.346;2022-09-21T08:00:49;2.83;;;1.70;;
15317;SDS011;7759;52.528;13.346;2022-09-21T08:03:16;2.33;;;1.80;;
15317;SDS011;7759;52.528;13.346;2022-09-21T08:05:42;3.33;;;1.90;;
15317;SDS011;7759;52.528;13.346;2022-09-21T08:08:08;2.87;;;2.00;;
15317;SDS011;7759;52.528;13.346;2022-09-21T08:10:34;3.97;;;2.57;;
15317;SDS011;7759;52.528;13.346;2022-09-21T08:13:01;4.93;;;2.83;;
15317;SDS011;7759;52.528;13.346;2022-09-21T08:15:27;4.50;;;2.30;;
15317;SDS011;7759;52.528;13.346;2022-09-21T08:17:53;2.97;;;2.13;;
15317;SDS011;7759;52.528;13.346;2022-09-21T08:20:20;5.73;;;2.20;;
15317;SDS011;7759;52.528;13.346;2022-09-21T08:22:48;6.00;;;2.00;;
15317;SDS011;7759;52.528;13.346;2022-09-21T08:25:17;3.07;;;2.13;;
15317;SDS011;7759;52.528;13.346;2022-09-21T08:27:46;3.90;;;2.20;;
15317;SDS011;7759;52.528;13.346;2022-09-21T08:30:13;4.20;;;2.57;;
15317;SDS011;7759;52.528;13.346;2022-09-21T08:32:39;3.67;;;2.33;;
15317;SDS011;7759;52.528;13.346;2022-09-21T08:35:06;7.90;;;3.00;;
15317;SDS011;7759;52.528;13.346;2022-09-21T08:37:35;4.47;;;1.90;;
15317;SDS011;7759;52.528;13.346;2022-09-21T08:40:02;4.17;;;2.53;;
15317;SDS011;7759;52.528;13.346;2022-09-21T08:42:39;2.97;;;2.00;;
15317;SDS011;7759;52.528;13.346;2022-09-21T08:45:09;4.10;;;2.13;;
15317;SDS011;7759;52.528;13.346;2022-09-21T08:47:55;4.03;;;2.00;;
15317;SDS011;7759;52.528;13.346;2022-09-21T08:50:26;3.97;;;1.70;;
15317;SDS011;7759;52.528;13.346;2022-09-21T08:53:05;6.43;;;1.80;;
15317;SDS011;7759;52.528;13.346;2022-09-21T08:55:32;3.33;;;1.80;;
15317;SDS011;7759;52.528;13.346;2022-09-21T08:57:58;2.17;;;1.73;;
15317;SDS011;7759;52.528;13.346;2022-09-21T09:00:25;4.10;;;1.73;;
15317;SDS011;7759;52.528;13.346;2022-09-21T09:11:13;2.33;;;1.77;;
15317;SDS011;7759;52.528;13.346;2022-09-21T09:13:51;3.90;;;1.60;;
15317;SDS011;7759;52.528;13.346;2022-09-21T09:16:37;2.90;;;1.93;;
15317;SDS011;7759;52.528;13.346;2022-09-21T09:21:53;3.67;;;1.87;;
15317;SDS011;7759;52.528;13.346;2022-09-21T09:24:36;3.13;;;2.00;;
15317;SDS011;7759;52.528;13.346;2022-09-21T09:27:24;3.70;;;2.10;;
15317;SDS011;7759;52.528;13.346;2022-09-21T09:29:58;3.60;;;1.67;;
15317;SDS011;7759;52.528;13.346;2022-09-21T09:32:30;6.60;;;2.00;;
15317;SDS011;7759;52.528;13.346;2022-09-21T09:35:01;3.73;;;2.80;;
15317;SDS011;7759;52.528;13.346;2022-09-21T09:37:30;3.70;;;2.10;;
15317;SDS011;7759;52.528;13.346;2022-09-21T09:39:58;2.30;;;1.70;;
15317;SDS011;7759;52.528;13.346;2022-09-21T09:45:02;2.30;;;1.70;;
15317;SDS011;7759;52.528;13.346;2022-09-21T09:52:25;3.23;;;1.30;;
15317;SDS011;7759;52.528;13.346;2022-09-21T09:54:51;1.07;;;0.97;;
15317;SDS011;7759;52.528;13.346;2022-09-21T09:57:21;1.73;;;1.57;;
15317;SDS011;7759;52.528;13.346;2022-09-21T09:59:51;2.57;;;1.20;;
15317;SDS011;7759;52.528;13.346;2022-09-21T10:02:19;2.63;;;1.07;;
15317;SDS011;7759;52.528;13.346;2022-09-21T10:04:59;4.20;;;1.00;;
15317;SDS011;7759;52.528;13.346;2022-09-21T10:10:21;2.07;;;1.17;;
15317;SDS011;7759;52.528;13.346;2022-09-21T10:12:47;1.20;;;1.00;;
15317;SDS011;7759;52.528;13.346;2022-09-21T10:15:15;0.80;;;0.70;;
15317;SDS011;7759;52.528;13.346;2022-09-21T10:17:43;1.13;;;0.70;;
15317;SDS011;7759;52.528;13.346;2022-09-21T10:20:15;0.70;;;0.70;;
15317;SDS011;7759;52.528;13.346;2022-09-21T10:22:42;2.10;;;0.70;;
15317;SDS011;7759;52.528;13.346;2022-09-21T10:25:17;2.73;;;0.60;;
15317;SDS011;7759;52.528;13.346;2022-09-21T10:27:45;1.38;;;0.90;;
15317;SDS011;7759;52.528;13.346;2022-09-21T10:32:58;2.40;;;0.88;;
15317;SDS011;7759;52.528;13.346;2022-09-21T10:35:25;0.77;;;0.70;;
15317;SDS011;7759;52.528;13.346;2022-09-21T10:40:36;2.63;;;0.70;;
15317;SDS011;7759;52.528;13.346;2022-09-21T10:43:03;0.75;;;0.50;;
15317;SDS011;7759;52.528;13.346;2022-09-21T10:45:30;0.55;;;0.55;;
15317;SDS011;7759;52.528;13.346;2022-09-21T10:47:57;4.10;;;2.00;;
15317;SDS011;7759;52.528;13.346;2022-09-21T10:50:25;2.00;;;1.08;;
15317;SDS011;7759;52.528;13.346;2022-09-21T10:53:11;1.77;;;0.85;;
15317;SDS011;7759;52.528;13.346;2022-09-21T10:55:42;3.10;;;1.17;;
15317;SDS011;7759;52.528;13.346;2022-09-21T10:58:12;1.08;;;0.50;;
15317;SDS011;7759;52.528;13.346;2022-09-21T11:00:42;1.58;;;0.70;;
15317;SDS011;7759;52.528;13.346;2022-09-21T11:06:06;1.70;;;1.10;;
15317;SDS011;7759;52.528;13.346;2022-09-21T11:08:37;1.00;;;0.70;;
15317;SDS011;7759;52.528;13.346;2022-09-21T11:13:58;3.15;;;0.80;;
15317;SDS011;7759;52.528;13.346;2022-09-21T11:16:46;0.60;;;0.57;;
15317;SDS011;7759;52.528;13.346;2022-09-21T11:22:01;1.02;;;0.93;;
15317;SDS011;7759;52.528;13.346;2022-09-21T11:24:38;1.02;;;0.70;;
15317;SDS011;7759;52.528;13.346;2022-09-21T11:27:08;0.70;;;0.60;;
15317;SDS011;7759;52.528;13.346;2022-09-21T11:29:38;0.63;;;0.60;;
15317;SDS011;7759;52.528;13.346;2022-09-21T11:44:56;2.95;;;0.80;;
15317;SDS011;7759;52.528;13.346;2022-09-21T11:52:49;1.35;;;0.65;;
15317;SDS011;7759;52.528;13.346;2022-09-21T11:55:23;1.38;;;0.65;;
15317;SDS011;7759;52.528;13.346;2022-09-21T12:00:25;0.93;;;0.68;;
15317;SDS011;7759;52.528;13.346;2022-09-21T12:05:46;1.20;;;0.60;;
15317;SDS011;7759;52.528;13.346;2022-09-21T12:21:29;1.27;;;0.77;;
15317;SDS011;7759;52.528;13.346;2022-09-21T12:23:58;1.10;;;0.70;;
15317;SDS011;7759;52.528;13.346;2022-09-21T12:26:28;1.55;;;0.63;;
15317;SDS011;7759;52.528;13.346;2022-09-21T12:28:59;0.77;;;0.70;;
15317;SDS011;7759;52.528;13.346;2022-09-21T12:34:17;0.85;;;0.60;;
15317;SDS011;7759;52.528;13.346;2022-09-21T12:37:06;1.95;;;0.70;;
15317;SDS011;7759;52.528;13.346;2022-09-21T12:39:38;0.98;;;0.80;;
15317;SDS011;7759;52.528;13.346;2022-09-21T12:44:57;0.60;;;0.60;;
15317;SDS011;7759;52.528;13.346;2022-09-21T12:50:24;1.25;;;0.70;;
15317;SDS011;7759;52.528;13.346;2022-09-21T12:55:33;1.52;;;0.75;;
15317;SDS011;7759;52.528;13.346;2022-09-21T13:00:59;1.58;;;0.70;;
15317;SDS011;7759;52.528;13.346;2022-09-21T13:03:37;0.70;;;0.60;;
15317;SDS011;7759;52.528;13.346;2022-09-21T13:08:48;1.42;;;0.70;;
15317;SDS011;7759;52.528;13.346;2022-09-21T13:11:16;1.35;;;0.65;;
15317;SDS011;7759;52.528;13.346;2022-09-21T13:13:51;0.93;;;0.77;;
15317;SDS011;7759;52.528;13.346;2022-09-21T13:16:37;0.75;;;0.70;;
15317;SDS011;7759;52.528;13.346;2022-09-21T13:21:39;1.35;;;0.40;;
15317;SDS011;7759;52.528;13.346;2022-09-21T13:24:22;0.70;;;0.70;;
15317;SDS011;7759;52.528;13.346;2022-09-21T13:26:57;0.50;;;0.50;;
15317;SDS011;7759;52.528;13.346;2022-09-21T13:32:00;1.38;;;0.65;;
15317;SDS011;7759;52.528;13.346;2022-09-21T13:34:33;2.08;;;0.68;;
15317;SDS011;7759;52.528;13.346;2022-09-21T13:47:43;2.33;;;0.80;;
15317;SDS011;7759;52.528;13.346;2022-09-21T13:50:19;0.47;;;0.47;;
15317;SDS011;7759;52.528;13.346;2022-09-21T13:53:31;0.70;;;0.38;;
15317;SDS011;7759;52.528;13.346;2022-09-21T13:56:17;0.75;;;0.60;;
15317;SDS011;7759;52.528;13.346;2022-09-21T13:58:45;0.45;;;0.45;;
15317;SDS011;7759;52.528;13.346;2022-09-21T14:03:44;1.48;;;0.73;;
15317;SDS011;7759;52.528;13.346;2022-09-21T14:06:19;3.20;;;0.63;;
15317;SDS011;7759;52.528;13.346;2022-09-21T14:08:50;0.40;;;0.40;;
15317;SDS011;7759;52.528;13.346;2022-09-21T14:11:25;0.55;;;0.40;;
15317;SDS011;7759;52.528;13.346;2022-09-21T14:14:11;0.55;;;0.50;;
15317;SDS011;7759;52.528;13.346;2022-09-21T14:29:50;0.90;;;0.57;;
15317;SDS011;7759;52.528;13.346;2022-09-21T14:32:18;1.50;;;0.70;;
15317;SDS011;7759;52.528;13.346;2022-09-21T14:34:47;0.77;;;0.70;;
15317;SDS011;7759;52.528;13.346;2022-09-21T14:37:23;2.85;;;2.15;;
15317;SDS011;7759;52.528;13.346;2022-09-21T14:39:51;1.00;;;0.80;;
15317;SDS011;7759;52.528;13.346;2022-09-21T14:42:19;0.95;;;0.63;;
15317;SDS011;7759;52.528;13.346;2022-09-21T14:44:50;1.30;;;0.60;;
15317;SDS011;7759;52.528;13.346;2022-09-21T14:47:38;0.50;;;0.50;;
15317;SDS011;7759;52.528;13.346;2022-09-21T14:50:22;0.57;;;0.57;;
15317;SDS011;7759;52.528;13.346;2022-09-21T14:55:42;0.77;;;0.70;;
15317;SDS011;7759;52.528;13.346;2022-09-21T14:58:18;0.50;;;0.50;;
15317;SDS011;7759;52.528;13.346;2022-09-21T15:04:09;1.00;;;0.50;;
15317;SDS011;7759;52.528;13.346;2022-09-21T15:06:41;0.70;;;0.50;;
15317;SDS011;7759;52.528;13.346;2022-09-21T15:12:27;2.60;;;0.70;;
15317;SDS011;7759;52.528;13.346;2022-09-21T15:15:04;0.30;;;0.30;;
15317;SDS011;7759;52.528;13.346;2022-09-21T15:17:34;0.57;;;0.47;;
15317;SDS011;7759;52.528;13.346;2022-09-21T15:20:14;0.98;;;0.45;;
15317;SDS011;7759;52.528;13.346;2022-09-21T15:22:41;0.60;;;0.50;;
15317;SDS011;7759;52.528;13.346;2022-09-21T15:25:10;0.75;;;0.63;;
15317;SDS011;7759;52.528;13.346;2022-09-21T15:27:43;0.50;;;0.50;;
15317;SDS011;7759;52.528;13.346;2022-09-21T15:30:21;0.57;;;0.57;;
15317;SDS011;7759;52.528;13.346;2022-09-21T15:38:25;1.53;;;0.40;;
15317;SDS011;7759;52.528;13.346;2022-09-21T15:40:55;1.23;;;0.60;;
15317;SDS011;7759;52.528;13.346;2022-09-21T15:43:22;2.10;;;0.70;;
15317;SDS011;7759;52.528;13.346;2022-09-21T15:48:24;0.30;;;0.30;;
15317;SDS011;7759;52.528;13.346;2022-09-21T15:53:39;0.40;;;0.40;;
15317;SDS011;7759;52.528;13.346;2022-09-21T15:56:19;0.88;;;0.50;;
15317;SDS011;7759;52.528;13.346;2022-09-21T15:58:47;2.95;;;1.15;;
15317;SDS011;7759;52.528;13.346;2022-09-21T16:01:18;0.68;;;0.50;;
15317;SDS011;7759;52.528;13.346;2022-09-21T16:04:04;2.80;;;0.75;;
15317;SDS011;7759;52.528;13.346;2022-09-21T16:06:35;1.67;;;0.70;;
15317;SDS011;7759;52.528;13.346;2022-09-21T16:11:57;0.88;;;0.60;;
15317;SDS011;7759;52.528;13.346;2022-09-21T16:14:25;1.27;;;0.60;;
15317;SDS011;7759;52.528;13.346;2022-09-21T16:17:26;1.08;;;0.80;;
15317;SDS011;7759;52.528;13.346;2022-09-21T16:24:57;0.60;;;0.57;;
15317;SDS011;7759;52.528;13.346;2022-09-21T16:27:29;2.03;;;0.40;;
15317;SDS011;7759;52.528;13.346;2022-09-21T16:30:15;1.67;;;0.70;;
15317;SDS011;7759;52.528;13.346;2022-09-21T16:38:29;1.10;;;0.43;;
15317;SDS011;7759;52.528;13.346;2022-09-21T16:40:57;0.55;;;0.40;;
15317;SDS011;7759;52.528;13.346;2022-09-21T16:43:24;1.13;;;0.70;;
15317;SDS011;7759;52.528;13.346;2022-09-21T16:45:51;0.60;;;0.40;;
15317;SDS011;7759;52.528;13.346;2022-09-21T16:48:18;1.00;;;0.50;;
15317;SDS011;7759;52.528;13.346;2022-09-21T16:50:46;1.17;;;0.63;;
15317;SDS011;7759;52.528;13.346;2022-09-21T16:53:16;1.23;;;0.80;;
15317;SDS011;7759;52.528;13.346;2022-09-21T16:55:45;1.00;;;0.60;;
15317;SDS011;7759;52.528;13.346;2022-09-21T16:58:13;0.70;;;0.60;;
15317;SDS011;7759;52.528;13.346;2022-09-21T17:00:40;1.55;;;0.63;;
15317;SDS011;7759;52.528;13.346;2022-09-21T17:03:08;1.27;;;0.50;;
15317;SDS011;7759;52.528;13.346;2022-09-21T17:05:51;1.93;;;1.10;;
15317;SDS011;7759;52.528;13.346;2022-09-21T17:08:45;0.82;;;0.60;;
15317;SDS011;7759;52.528;13.346;2022-09-21T17:11:18;1.13;;;0.77;;
15317;SDS011;7759;52.528;13.346;2022-09-21T17:13:47;0.80;;;0.60;;
15317;SDS011;7759;52.528;13.346;2022-09-21T17:16:14;0.97;;;0.70;;
15317;SDS011;7759;52.528;13.346;2022-09-21T17:18:46;1.35;;;0.75;;
15317;SDS011;7759;52.528;13.346;2022-09-21T17:21:15;2.07;;;0.67;;
15317;SDS011;7759;52.528;13.346;2022-09-21T17:23:42;1.83;;;1.10;;
15317;SDS011;7759;52.528;13.346;2022-09-21T17:26:14;1.20;;;1.07;;
15317;SDS011;7759;52.528;13.346;2022-09-21T17:31:17;0.80;;;0.57;;
15317;SDS011;7759;52.528;13.346;2022-09-21T17:33:46;4.25;;;0.75;;
15317;SDS011;7759;52.528;13.346;2022-09-21T17:36:14;0.97;;;0.87;;
15317;SDS011;7759;52.528;13.346;2022-09-21T17:43:58;1.10;;;0.67;;
15317;SDS011;7759;52.528;13.346;2022-09-21T17:46:46;0.93;;;0.83;;
15317;SDS011;7759;52.528;13.346;2022-09-21T17:49:15;2.83;;;1.50;;
15317;SDS011;7759;52.528;13.346;2022-09-21T17:51:43;1.97;;;1.53;;
15317;SDS011;7759;52.528;13.346;2022-09-21T17:54:27;6.97;;;3.13;;
15317;SDS011;7759;52.528;13.346;2022-09-21T17:57:12;2.37;;;1.70;;
15317;SDS011;7759;52.528;13.346;2022-09-21T17:59:47;4.47;;;1.80;;
15317;SDS011;7759;52.528;13.346;2022-09-21T18:02:21;1.03;;;0.93;;
15317;SDS011;7759;52.528;13.346;2022-09-21T18:04:49;2.53;;;1.50;;
15317;SDS011;7759;52.528;13.346;2022-09-21T18:07:16;2.17;;;1.67;;
15317;SDS011;7759;52.528;13.346;2022-09-21T18:09:43;6.60;;;2.43;;
15317;SDS011;7759;52.528;13.346;2022-09-21T18:17:41;8.80;;;3.97;;
15317;SDS011;7759;52.528;13.346;2022-09-21T18:42:27;9.97;;;5.03;;
15317;SDS011;7759;52.528;13.346;2022-09-21T18:48:01;6.37;;;3.00;;
15317;SDS011;7759;52.528;13.346;2022-09-21T18:50:31;6.50;;;3.30;;
15317;SDS011;7759;52.528;13.346;2022-09-21T19:03:18;8.70;;;4.07;;
15317;SDS011;7759;52.528;13.346;2022-09-21T19:06:08;5.03;;;2.97;;
15317;SDS011;7759;52.528;13.346;2022-09-21T19:11:23;5.83;;;3.20;;
15317;SDS011;7759;52.528;13.346;2022-09-21T19:21:54;5.97;;;3.23;;
15317;SDS011;7759;52.528;13.346;2022-09-21T19:25:00;4.60;;;2.83;;
15317;SDS011;7759;52.528;13.346;2022-09-21T19:32:33;4.00;;;2.70;;
15317;SDS011;7759;52.528;13.346;2022-09-21T19:35:00;5.20;;;2.80;;
15317;SDS011;7759;52.528;13.346;2022-09-21T19:37:36;5.47;;;3.20;;
15317;SDS011;7759;52.528;13.346;2022-09-21T19:40:04;3.83;;;2.50;;
15317;SDS011;7759;52.528;13.346;2022-09-21T19:42:34;4.70;;;3.10;;
15317;SDS011;7759;52.528;13.346;2022-09-21T19:45:14;7.53;;;2.67;;
15317;SDS011;7759;52.528;13.346;2022-09-21T19:47:53;5.00;;;2.53;;
15317;SDS011;7759;52.528;13.346;2022-09-21T19:50:25;5.63;;;2.33;;
15317;SDS011;7759;52.528;13.346;2022-09-21T19:52:52;3.87;;;2.30;;
15317;SDS011;7759;52.528;13.346;2022-09-21T19:55:39;4.60;;;2.07;;
15317;SDS011;7759;52.528;13.346;2022-09-21T19:58:27;5.43;;;2.10;;
15317;SDS011;7759;52.528;13.346;2022-09-21T20:01:15;4.00;;;2.10;;
15317;SDS011;7759;52.528;13.346;2022-09-21T20:03:46;4.30;;;2.20;;
15317;SDS011;7759;52.528;13.346;2022-09-21T20:06:19;4.43;;;1.87;;
15317;SDS011;7759;52.528;13.346;2022-09-21T20:08:51;4.20;;;2.00;;
15317;SDS011;7759;52.528;13.346;2022-09-21T20:14:42;3.70;;;2.40;;
15317;SDS011;7759;52.528;13.346;2022-09-21T20:17:07;4.93;;;2.07;;
15317;SDS011;7759;52.528;13.346;2022-09-21T20:22:35;3.50;;;2.30;;
15317;SDS011;7759;52.528;13.346;2022-09-21T20:25:11;3.47;;;2.17;;
15317;SDS011;7759;52.528;13.346;2022-09-21T20:27:46;3.43;;;2.00;;
15317;SDS011;7759;52.528;13.346;2022-09-21T20:30:15;3.67;;;2.17;;
15317;SDS011;7759;52.528;13.346;2022-09-21T20:32:44;2.83;;;1.83;;
15317;SDS011;7759;52.528;13.346;2022-09-21T20:35:22;4.63;;;2.40;;
15317;SDS011;7759;52.528;13.346;2022-09-21T20:37:49;3.40;;;2.00;;
15317;SDS011;7759;52.528;13.346;2022-09-21T20:40:19;3.17;;;1.97;;
15317;SDS011;7759;52.528;13.346;2022-09-21T20:42:48;3.63;;;2.20;;
15317;SDS011;7759;52.528;13.346;2022-09-21T20:47:50;3.47;;;2.40;;
15317;SDS011;7759;52.528;13.346;2022-09-21T20:50:17;4.90;;;3.07;;
15317;SDS011;7759;52.528;13.346;2022-09-21T20:52:43;5.70;;;2.60;;
15317;SDS011;7759;52.528;13.346;2022-09-21T20:55:10;4.50;;;2.80;;
15317;SDS011;7759;52.528;13.346;2022-09-21T20:57:37;3.17;;;2.27;;
15317;SDS011;7759;52.528;13.346;2022-09-21T21:00:12;3.80;;;2.30;;